sensor_id;sensor_type;location;lat;lon;timestamp;pressure;altitude;pressure_sealevel;temperature;humidity
62548;BME280;48602;45.192;5.722;2023-08-24T00:00:30;99082.06;;;30.30;42.98
62548;BME280;48602;45.192;5.722;2023-08-24T00:02:57;99072.75;;;30.25;43.18
62548;BME280;48602;45.192;5.722;2023-08-24T00:05:23;99083.81;;;30.23;43.30
62548;BME280;48602;45.192;5.722;2023-08-24T00:07:48;99074.16;;;30.20;43.29
62548;BME280;48602;45.192;5.722;2023-08-24T00:10:14;99074.34;;;30.19;43.48
62548;BME280;48602;45.192;5.722;2023-08-24T00:12:39;99070.34;;;30.15;43.50
62548;BME280;48602;45.192;5.722;2023-08-24T00:15:07;99071.56;;;30.12;43.69
62548;BME280;48602;45.192;5.722;2023-08-24T00:17:34;99082.78;;;30.09;43.92
62548;BME280;48602;45.192;5.722;2023-08-24T00:19:59;99080.63;;;30.05;42.90
62548;BME280;48602;45.192;5.722;2023-08-24T00:22:25;99077.44;;;30.01;43.73
62548;BME280;48602;45.192;5.722;2023-08-24T00:24:50;99071.69;;;29.96;43.34
62548;BME280;48602;45.192;5.722;2023-08-24T00:27:15;99071.78;;;29.88;43.93
62548;BME280;48602;45.192;5.722;2023-08-24T00:29:41;99069.59;;;29.83;44.13
62548;BME280;48602;45.192;5.722;2023-08-24T00:32:06;99071.03;;;29.79;43.85
62548;BME280;48602;45.192;5.722;2023-08-24T00:34:33;99069.53;;;29.77;44.00
62548;BME280;48602;45.192;5.722;2023-08-24T00:36:58;99066.97;;;29.75;45.03
62548;BME280;48602;45.192;5.722;2023-08-24T00:39:24;99069.88;;;29.74;44.72
62548;BME280;48602;45.192;5.722;2023-08-24T00:41:49;99067.81;;;29.76;44.66
62548;BME280;48602;45.192;5.722;2023-08-24T00:44:14;99069.53;;;29.77;44.90
62548;BME280;48602;45.192;5.722;2023-08-24T00:46:40;99071.22;;;29.78;45.22
62548;BME280;48602;45.192;5.722;2023-08-24T00:49:06;99076.47;;;29.79;45.23
62548;BME280;48602;45.192;5.722;2023-08-24T00:51:32;99069.16;;;29.80;45.30
62548;BME280;48602;45.192;5.722;2023-08-24T00:53:57;99078.34;;;29.79;45.99
62548;BME280;48602;45.192;5.722;2023-08-24T00:56:24;99071.03;;;29.79;45.30
62548;BME280;48602;45.192;5.722;2023-08-24T00:58:50;99067.47;;;29.79;45.72
62548;BME280;48602;45.192;5.722;2023-08-24T01:01:19;99066.81;;;29.77;45.66
62548;BME280;48602;45.192;5.722;2023-08-24T01:03:45;99070.53;;;29.76;45.43
62548;BME280;48602;45.192;5.722;2023-08-24T01:06:10;99068.84;;;29.75;46.05
62548;BME280;48602;45.192;5.722;2023-08-24T01:08:36;99071.75;;;29.73;45.78
62548;BME280;48602;45.192;5.722;2023-08-24T01:12:07;99071.28;;;29.70;45.46
62548;BME280;48602;45.192;5.722;2023-08-24T01:14:11;99068.28;;;29.65;45.64
62548;BME280;48602;45.192;5.722;2023-08-24T01:16:43;99067.97;;;29.60;46.07
62548;BME280;48602;45.192;5.722;2023-08-24T01:21:57;99072.44;;;29.52;45.81
62548;BME280;48602;45.192;5.722;2023-08-24T01:24:38;99076.38;;;29.50;46.33
62548;BME280;48602;45.192;5.722;2023-08-24T01:27:05;99076.75;;;29.47;46.20
62548;BME280;48602;45.192;5.722;2023-08-24T01:29:31;99080.03;;;29.42;46.06
62548;BME280;48602;45.192;5.722;2023-08-24T01:31:57;99081.56;;;29.37;46.08
62548;BME280;48602;45.192;5.722;2023-08-24T01:34:22;99079.41;;;29.32;46.61
62548;BME280;48602;45.192;5.722;2023-08-24T01:36:48;99086.72;;;29.32;46.70
62548;BME280;48602;45.192;5.722;2023-08-24T01:41:53;99084.34;;;29.29;46.54
62548;BME280;48602;45.192;5.722;2023-08-24T01:44:21;99081.16;;;29.25;46.30
62548;BME280;48602;45.192;5.722;2023-08-24T01:46:49;99081.31;;;29.24;46.21
62548;BME280;48602;45.192;5.722;2023-08-24T01:49:18;99085.25;;;29.21;46.75
62548;BME280;48602;45.192;5.722;2023-08-24T01:51:45;99088.97;;;29.20;46.78
62548;BME280;48602;45.192;5.722;2023-08-24T01:54:12;99085.59;;;29.18;47.09
62548;BME280;48602;45.192;5.722;2023-08-24T01:56:37;99083.06;;;29.16;46.29
62548;BME280;48602;45.192;5.722;2023-08-24T01:59:02;99083.44;;;29.13;46.68
62548;BME280;48602;45.192;5.722;2023-08-24T02:01:28;99086.34;;;29.12;46.55
62548;BME280;48602;45.192;5.722;2023-08-24T02:03:53;99087.53;;;29.09;46.61
62548;BME280;48602;45.192;5.722;2023-08-24T02:06:19;99094.00;;;29.08;47.13
62548;BME280;48602;45.192;5.722;2023-08-24T02:08:44;99086.88;;;29.07;46.77
62548;BME280;48602;45.192;5.722;2023-08-24T02:11:10;99077.88;;;29.07;46.80
62548;BME280;48602;45.192;5.722;2023-08-24T02:13:35;99084.34;;;29.06;46.72
62548;BME280;48602;45.192;5.722;2023-08-24T02:16:04;99079.25;;;29.03;46.97
62548;BME280;48602;45.192;5.722;2023-08-24T02:18:30;99083.84;;;29.02;46.82
62548;BME280;48602;45.192;5.722;2023-08-24T02:20:56;99077.75;;;29.00;46.89
62548;BME280;48602;45.192;5.722;2023-08-24T02:23:21;99087.75;;;29.00;47.09
62548;BME280;48602;45.192;5.722;2023-08-24T02:25:46;99077.97;;;28.99;46.74
62548;BME280;48602;45.192;5.722;2023-08-24T02:28:12;99077.97;;;28.99;47.15
62548;BME280;48602;45.192;5.722;2023-08-24T02:30:38;99074.41;;;28.98;46.81
62548;BME280;48602;45.192;5.722;2023-08-24T02:33:04;99070.00;;;28.97;46.73
62548;BME280;48602;45.192;5.722;2023-08-24T02:35:29;99068.31;;;28.96;46.69
62548;BME280;48602;45.192;5.722;2023-08-24T02:37:55;99062.19;;;28.94;47.12
62548;BME280;48602;45.192;5.722;2023-08-24T02:40:22;99066.78;;;28.94;46.95
62548;BME280;48602;45.192;5.722;2023-08-24T02:42:47;99059.66;;;28.93;46.75
62548;BME280;48602;45.192;5.722;2023-08-24T02:45:13;99061.72;;;28.91;46.71
62548;BME280;48602;45.192;5.722;2023-08-24T02:47:38;99061.03;;;28.89;46.48
62548;BME280;48602;45.192;5.722;2023-08-24T02:50:05;99050.53;;;28.86;46.80
62548;BME280;48602;45.192;5.722;2023-08-24T02:52:31;99051.94;;;28.81;47.05
62548;BME280;48602;45.192;5.722;2023-08-24T02:54:57;99051.41;;;28.78;46.61
62548;BME280;48602;45.192;5.722;2023-08-24T02:57:23;99051.78;;;28.75;47.21
62548;BME280;48602;45.192;5.722;2023-08-24T02:59:48;99049.41;;;28.72;46.99
62548;BME280;48602;45.192;5.722;2023-08-24T03:02:13;99058.06;;;28.67;46.67
62548;BME280;48602;45.192;5.722;2023-08-24T03:04:39;99050.31;;;28.64;46.99
62548;BME280;48602;45.192;5.722;2023-08-24T03:07:04;99057.13;;;28.60;46.59
62548;BME280;48602;45.192;5.722;2023-08-24T03:09:34;99049.34;;;28.57;47.06
62548;BME280;48602;45.192;5.722;2023-08-24T03:11:59;99050.69;;;28.53;46.62
62548;BME280;48602;45.192;5.722;2023-08-24T03:14:24;99052.75;;;28.51;46.92
62548;BME280;48602;45.192;5.722;2023-08-24T03:16:50;99050.41;;;28.48;46.91
62548;BME280;48602;45.192;5.722;2023-08-24T03:19:15;99046.00;;;28.47;47.16
62548;BME280;48602;45.192;5.722;2023-08-24T03:21:43;99044.66;;;28.43;46.38
62548;BME280;48602;45.192;5.722;2023-08-24T03:24:08;99045.69;;;28.42;46.85
62548;BME280;48602;45.192;5.722;2023-08-24T03:26:34;99041.63;;;28.38;46.51
62548;BME280;48602;45.192;5.722;2023-08-24T03:28:59;99048.06;;;28.37;46.88
62548;BME280;48602;45.192;5.722;2023-08-24T03:31:25;99045.34;;;28.37;46.44
62548;BME280;48602;45.192;5.722;2023-08-24T03:33:51;99047.06;;;28.38;46.56
62548;BME280;48602;45.192;5.722;2023-08-24T03:36:16;99049.59;;;28.39;46.46
62548;BME280;48602;45.192;5.722;2023-08-24T03:38:42;99046.19;;;28.37;46.97
62548;BME280;48602;45.192;5.722;2023-08-24T03:41:07;99058.75;;;28.38;46.98
62548;BME280;48602;45.192;5.722;2023-08-24T03:43:34;99058.91;;;28.37;47.27
62548;BME280;48602;45.192;5.722;2023-08-24T03:46:00;99066.03;;;28.38;47.71
62548;BME280;48602;45.192;5.722;2023-08-24T03:48:25;99071.47;;;28.38;48.50
62548;BME280;48602;45.192;5.722;2023-08-24T03:50:54;99061.81;;;28.35;48.29
62548;BME280;48602;45.192;5.722;2023-08-24T03:53:19;99068.06;;;28.36;48.59
62548;BME280;48602;45.192;5.722;2023-08-24T03:55:47;99070.97;;;28.34;48.53
62548;BME280;48602;45.192;5.722;2023-08-24T03:58:13;99075.72;;;28.32;48.92
62548;BME280;48602;45.192;5.722;2023-08-24T04:00:39;99080.84;;;28.27;49.13
62548;BME280;48602;45.192;5.722;2023-08-24T04:03:04;99078.63;;;28.23;49.12
62548;BME280;48602;45.192;5.722;2023-08-24T04:05:30;99082.69;;;28.19;49.40
62548;BME280;48602;45.192;5.722;2023-08-24T04:07:55;99077.97;;;28.12;49.67
62548;BME280;48602;45.192;5.722;2023-08-24T04:10:20;99079.16;;;28.10;49.39
62548;BME280;48602;45.192;5.722;2023-08-24T04:12:46;99077.81;;;28.06;49.92
62548;BME280;48602;45.192;5.722;2023-08-24T04:15:12;99071.72;;;28.04;50.00
62548;BME280;48602;45.192;5.722;2023-08-24T04:17:37;99077.47;;;28.01;49.96
62548;BME280;48602;45.192;5.722;2023-08-24T04:20:03;99067.66;;;28.00;49.51
62548;BME280;48602;45.192;5.722;2023-08-24T04:22:31;99066.81;;;27.99;49.81
62548;BME280;48602;45.192;5.722;2023-08-24T04:24:57;99069.72;;;27.98;50.03
62548;BME280;48602;45.192;5.722;2023-08-24T04:27:22;99070.06;;;27.95;50.10
62548;BME280;48602;45.192;5.722;2023-08-24T04:29:48;99067.34;;;27.95;49.98
62548;BME280;48602;45.192;5.722;2023-08-24T04:32:14;99068.19;;;27.95;50.05
62548;BME280;48602;45.192;5.722;2023-08-24T04:34:39;99073.63;;;27.95;50.30
62548;BME280;48602;45.192;5.722;2023-08-24T04:37:06;99073.78;;;27.94;50.23
62548;BME280;48602;45.192;5.722;2023-08-24T04:39:32;99077.50;;;27.93;49.97
62548;BME280;48602;45.192;5.722;2023-08-24T04:41:57;99073.44;;;27.89;50.47
62548;BME280;48602;45.192;5.722;2023-08-24T04:44:23;99082.78;;;27.86;50.60
62548;BME280;48602;45.192;5.722;2023-08-24T04:46:49;99082.25;;;27.83;50.35
62548;BME280;48602;45.192;5.722;2023-08-24T04:49:14;99082.81;;;27.78;50.61
62548;BME280;48602;45.192;5.722;2023-08-24T04:51:39;99085.84;;;27.75;50.55
62548;BME280;48602;45.192;5.722;2023-08-24T04:54:05;99087.03;;;27.72;50.29
62548;BME280;48602;45.192;5.722;2023-08-24T04:56:30;99086.53;;;27.69;50.54
62548;BME280;48602;45.192;5.722;2023-08-24T04:58:56;99095.19;;;27.64;50.45
62548;BME280;48602;45.192;5.722;2023-08-24T05:01:25;99097.22;;;27.62;50.63
62548;BME280;48602;45.192;5.722;2023-08-24T05:03:51;99097.56;;;27.59;50.75
62548;BME280;48602;45.192;5.722;2023-08-24T05:06:17;99099.56;;;27.57;50.93
62548;BME280;48602;45.192;5.722;2023-08-24T05:08:42;99091.91;;;27.53;50.96
62548;BME280;48602;45.192;5.722;2023-08-24T05:11:18;99096.19;;;27.47;50.98
62548;BME280;48602;45.192;5.722;2023-08-24T05:13:43;99100.41;;;27.41;50.97
62548;BME280;48602;45.192;5.722;2023-08-24T05:16:10;99103.28;;;27.40;51.31
62548;BME280;48602;45.192;5.722;2023-08-24T05:18:36;99099.72;;;27.39;51.39
62548;BME280;48602;45.192;5.722;2023-08-24T05:21:02;99100.41;;;27.41;51.19
62548;BME280;48602;45.192;5.722;2023-08-24T05:23:28;99097.53;;;27.43;51.40
62548;BME280;48602;45.192;5.722;2023-08-24T05:25:54;99101.38;;;27.49;51.10
62548;BME280;48602;45.192;5.722;2023-08-24T05:28:19;99109.03;;;27.53;51.43
62548;BME280;48602;45.192;5.722;2023-08-24T05:30:45;99114.97;;;27.57;51.31
62548;BME280;48602;45.192;5.722;2023-08-24T05:33:10;99107.53;;;27.59;51.14
62548;BME280;48602;45.192;5.722;2023-08-24T05:35:35;99097.38;;;27.61;51.02
62548;BME280;48602;45.192;5.722;2023-08-24T05:38:01;99096.19;;;27.63;51.15
62548;BME280;48602;45.192;5.722;2023-08-24T05:40:26;99100.41;;;27.66;50.20
62548;BME280;48602;45.192;5.722;2023-08-24T05:42:51;99105.81;;;27.66;50.66
62548;BME280;48602;45.192;5.722;2023-08-24T05:45:18;99106.50;;;27.68;50.25
62548;BME280;48602;45.192;5.722;2023-08-24T05:47:44;99108.88;;;27.71;50.35
62548;BME280;48602;45.192;5.722;2023-08-24T05:50:09;99110.06;;;27.76;50.87
62548;BME280;48602;45.192;5.722;2023-08-24T05:52:36;99103.47;;;27.79;50.74
62548;BME280;48602;45.192;5.722;2023-08-24T05:55:02;99104.78;;;27.83;50.62
62548;BME280;48602;45.192;5.722;2023-08-24T05:57:27;99108.84;;;27.87;50.58
62548;BME280;48602;45.192;5.722;2023-08-24T05:59:53;99110.22;;;27.91;50.52
62548;BME280;48602;45.192;5.722;2023-08-24T06:02:18;99110.72;;;27.95;50.31
62548;BME280;48602;45.192;5.722;2023-08-24T06:04:44;99107.47;;;27.99;50.11
62548;BME280;48602;45.192;5.722;2023-08-24T06:07:09;99106.28;;;28.02;50.10
62548;BME280;48602;45.192;5.722;2023-08-24T06:09:34;99107.47;;;28.07;49.09
62548;BME280;48602;45.192;5.722;2023-08-24T06:12:00;99114.22;;;28.11;49.38
62548;BME280;48602;45.192;5.722;2023-08-24T06:14:25;99106.78;;;28.13;49.65
62548;BME280;48602;45.192;5.722;2023-08-24T06:16:51;99113.69;;;28.16;49.49
62548;BME280;48602;45.192;5.722;2023-08-24T06:19:18;99113.53;;;28.18;49.54
62548;BME280;48602;45.192;5.722;2023-08-24T06:21:44;99123.22;;;28.20;48.36
62548;BME280;48602;45.192;5.722;2023-08-24T06:24:09;99125.59;;;28.23;48.63
62548;BME280;48602;45.192;5.722;2023-08-24T06:26:35;99121.50;;;28.27;48.56
62548;BME280;48602;45.192;5.722;2023-08-24T06:29:00;99123.50;;;28.33;48.49
62548;BME280;48602;45.192;5.722;2023-08-24T06:31:25;99117.56;;;28.38;48.78
62548;BME280;48602;45.192;5.722;2023-08-24T06:33:51;99122.47;;;28.42;49.16
62548;BME280;48602;45.192;5.722;2023-08-24T06:36:16;99122.13;;;28.45;49.01
62548;BME280;48602;45.192;5.722;2023-08-24T06:38:42;99120.94;;;28.48;49.17
62548;BME280;48602;45.192;5.722;2023-08-24T06:41:07;99115.13;;;28.51;48.77
62548;BME280;48602;45.192;5.722;2023-08-24T06:43:37;99115.47;;;28.56;48.79
62548;BME280;48602;45.192;5.722;2023-08-24T06:46:04;99123.25;;;28.59;48.94
62548;BME280;48602;45.192;5.722;2023-08-24T06:48:33;99117.66;;;28.61;49.27
62548;BME280;48602;45.192;5.722;2023-08-24T06:50:59;99117.13;;;28.65;49.55
62548;BME280;48602;45.192;5.722;2023-08-24T06:53:24;99125.91;;;28.67;49.17
62548;BME280;48602;45.192;5.722;2023-08-24T06:55:54;99123.69;;;28.71;49.03
62548;BME280;48602;45.192;5.722;2023-08-24T06:58:20;99122.50;;;28.73;49.22
62548;BME280;48602;45.192;5.722;2023-08-24T07:00:46;99119.78;;;28.73;48.67
62548;BME280;48602;45.192;5.722;2023-08-24T07:03:11;99117.91;;;28.74;48.51
62548;BME280;48602;45.192;5.722;2023-08-24T07:05:37;99119.97;;;28.72;48.88
62548;BME280;48602;45.192;5.722;2023-08-24T07:08:02;99121.84;;;28.71;48.59
62548;BME280;48602;45.192;5.722;2023-08-24T07:10:28;99121.47;;;28.74;48.22
62548;BME280;48602;45.192;5.722;2023-08-24T07:12:54;99121.31;;;28.76;48.26
62548;BME280;48602;45.192;5.722;2023-08-24T07:15:19;99116.56;;;28.78;48.62
62548;BME280;48602;45.192;5.722;2023-08-24T07:17:44;99115.38;;;28.80;48.61
62548;BME280;48602;45.192;5.722;2023-08-24T07:20:10;99113.13;;;28.84;48.50
62548;BME280;48602;45.192;5.722;2023-08-24T07:22:37;99114.31;;;28.90;47.90
62548;BME280;48602;45.192;5.722;2023-08-24T07:25:02;99117.69;;;28.92;47.84
62548;BME280;48602;45.192;5.722;2023-08-24T07:27:34;99115.81;;;28.92;47.22
62548;BME280;48602;45.192;5.722;2023-08-24T07:30:03;99105.81;;;28.93;46.63
62548;BME280;48602;45.192;5.722;2023-08-24T07:32:32;99111.72;;;28.96;46.86
62548;BME280;48602;45.192;5.722;2023-08-24T07:34:58;99102.38;;;28.99;46.84
62548;BME280;48602;45.192;5.722;2023-08-24T07:37:27;99103.03;;;29.01;47.21
62548;BME280;48602;45.192;5.722;2023-08-24T07:39:52;99097.25;;;29.04;46.58
62548;BME280;48602;45.192;5.722;2023-08-24T07:42:21;99094.84;;;29.09;46.79
62548;BME280;48602;45.192;5.722;2023-08-24T07:44:47;99086.16;;;29.13;46.44
62548;BME280;48602;45.192;5.722;2023-08-24T07:47:13;99083.56;;;29.20;46.80
62548;BME280;48602;45.192;5.722;2023-08-24T07:49:38;99090.81;;;29.28;46.37
62548;BME280;48602;45.192;5.722;2023-08-24T07:52:10;99082.75;;;29.34;46.25
62548;BME280;48602;45.192;5.722;2023-08-24T07:54:37;99088.19;;;29.42;46.44
62548;BME280;48602;45.192;5.722;2023-08-24T07:57:02;99082.88;;;29.49;46.64
62548;BME280;48602;45.192;5.722;2023-08-24T07:59:27;99075.66;;;29.56;46.40
62548;BME280;48602;45.192;5.722;2023-08-24T08:01:53;99070.34;;;29.63;46.35
62548;BME280;48602;45.192;5.722;2023-08-24T08:04:18;99068.38;;;29.71;45.62
62548;BME280;48602;45.192;5.722;2023-08-24T08:06:44;99072.72;;;29.80;45.77
62548;BME280;48602;45.192;5.722;2023-08-24T08:09:09;99058.34;;;29.86;45.66
62548;BME280;48602;45.192;5.722;2023-08-24T08:11:34;99060.81;;;29.96;45.71
62548;BME280;48602;45.192;5.722;2023-08-24T08:14:00;99054.84;;;30.01;45.34
62548;BME280;48602;45.192;5.722;2023-08-24T08:16:25;99058.50;;;30.08;44.70
62548;BME280;48602;45.192;5.722;2023-08-24T08:18:51;99057.94;;;30.12;44.91
62548;BME280;48602;45.192;5.722;2023-08-24T08:21:17;99051.75;;;30.18;44.75
62548;BME280;48602;45.192;5.722;2023-08-24T08:23:46;99055.59;;;30.24;44.77
62548;BME280;48602;45.192;5.722;2023-08-24T08:26:12;99048.38;;;30.31;44.11
62548;BME280;48602;45.192;5.722;2023-08-24T08:28:39;99055.75;;;30.37;44.28
62548;BME280;48602;45.192;5.722;2023-08-24T08:31:04;99056.88;;;30.43;44.48
62548;BME280;48602;45.192;5.722;2023-08-24T08:33:30;99047.97;;;30.49;44.37
62548;BME280;48602;45.192;5.722;2023-08-24T08:35:56;99043.47;;;30.56;44.40
62548;BME280;48602;45.192;5.722;2023-08-24T08:38:21;99038.13;;;30.63;44.55
62548;BME280;48602;45.192;5.722;2023-08-24T08:40:51;99029.16;;;30.69;44.01
62548;BME280;48602;45.192;5.722;2023-08-24T08:43:21;99033.66;;;30.76;44.39
62548;BME280;48602;45.192;5.722;2023-08-24T08:45:51;99024.50;;;30.84;43.81
62548;BME280;48602;45.192;5.722;2023-08-24T08:48:18;99027.50;;;30.89;43.90
62548;BME280;48602;45.192;5.722;2023-08-24T08:50:43;99027.59;;;30.96;43.85
62548;BME280;48602;45.192;5.722;2023-08-24T08:53:09;99027.44;;;31.04;43.77
62548;BME280;48602;45.192;5.722;2023-08-24T08:55:34;99018.50;;;31.10;43.18
62548;BME280;48602;45.192;5.722;2023-08-24T08:58:00;99022.78;;;31.19;42.92
62548;BME280;48602;45.192;5.722;2023-08-24T09:00:25;99017.22;;;31.27;42.71
62548;BME280;48602;45.192;5.722;2023-08-24T09:02:53;99007.84;;;31.36;42.73
62548;BME280;48602;45.192;5.722;2023-08-24T09:05:19;99005.19;;;31.43;41.95
62548;BME280;48602;45.192;5.722;2023-08-24T09:07:47;99005.25;;;31.49;42.26
62548;BME280;48602;45.192;5.722;2023-08-24T09:10:13;99007.16;;;31.55;41.87
62548;BME280;48602;45.192;5.722;2023-08-24T09:12:38;99003.66;;;31.62;42.47
62548;BME280;48602;45.192;5.722;2023-08-24T09:15:05;98998.06;;;31.70;41.97
62548;BME280;48602;45.192;5.722;2023-08-24T09:17:34;98997.94;;;31.78;41.81
62548;BME280;48602;45.192;5.722;2023-08-24T09:20:02;98984.56;;;31.83;42.30
62548;BME280;48602;45.192;5.722;2023-08-24T09:22:38;98985.59;;;31.88;42.32
62548;BME280;48602;45.192;5.722;2023-08-24T09:25:06;98985.84;;;31.94;41.91
62548;BME280;48602;45.192;5.722;2023-08-24T09:27:34;98981.06;;;32.02;42.34
62548;BME280;48602;45.192;5.722;2023-08-24T09:29:59;98982.59;;;32.11;42.27
62548;BME280;48602;45.192;5.722;2023-08-24T09:32:28;98976.97;;;32.19;41.20
62548;BME280;48602;45.192;5.722;2023-08-24T09:34:54;98976.19;;;32.25;41.26
62548;BME280;48602;45.192;5.722;2023-08-24T09:37:20;98970.31;;;32.35;41.02
62548;BME280;48602;45.192;5.722;2023-08-24T09:39:45;98965.75;;;32.42;40.62
62548;BME280;48602;45.192;5.722;2023-08-24T09:42:11;98960.31;;;32.49;40.72
62548;BME280;48602;45.192;5.722;2023-08-24T09:44:37;98956.53;;;32.56;40.94
62548;BME280;48602;45.192;5.722;2023-08-24T09:47:09;98962.66;;;32.65;40.21
62548;BME280;48602;45.192;5.722;2023-08-24T09:49:35;98950.50;;;32.74;39.37
62548;BME280;48602;45.192;5.722;2023-08-24T09:52:02;98952.22;;;32.82;38.57
62548;BME280;48602;45.192;5.722;2023-08-24T09:54:32;98945.28;;;32.92;38.76
62548;BME280;48602;45.192;5.722;2023-08-24T09:57:01;98946.97;;;33.00;38.22
62548;BME280;48602;45.192;5.722;2023-08-24T09:59:31;98939.41;;;33.09;37.29
62548;BME280;48602;45.192;5.722;2023-08-24T10:02:00;98941.69;;;33.18;37.70
62548;BME280;48602;45.192;5.722;2023-08-24T10:04:29;98936.28;;;33.25;37.58
62548;BME280;48602;45.192;5.722;2023-08-24T10:07:04;98935.44;;;33.31;36.79
62548;BME280;48602;45.192;5.722;2023-08-24T10:09:36;98937.31;;;33.37;36.72
62548;BME280;48602;45.192;5.722;2023-08-24T10:12:04;98932.91;;;33.43;36.01
62548;BME280;48602;45.192;5.722;2023-08-24T10:17:06;98926.13;;;33.52;35.80
62548;BME280;48602;45.192;5.722;2023-08-24T10:19:32;98919.19;;;33.56;35.42
62548;BME280;48602;45.192;5.722;2023-08-24T10:21:59;98911.81;;;33.63;35.54
62548;BME280;48602;45.192;5.722;2023-08-24T10:24:25;98920.84;;;33.70;35.65
62548;BME280;48602;45.192;5.722;2023-08-24T10:26:52;98910.31;;;33.74;34.89
62548;BME280;48602;45.192;5.722;2023-08-24T10:29:20;98909.72;;;33.78;35.40
62548;BME280;48602;45.192;5.722;2023-08-24T10:31:46;98906.50;;;33.88;35.22
62548;BME280;48602;45.192;5.722;2023-08-24T10:34:13;98905.66;;;33.94;34.97
62548;BME280;48602;45.192;5.722;2023-08-24T10:36:40;98898.47;;;34.00;34.86
62548;BME280;48602;45.192;5.722;2023-08-24T10:39:05;98895.47;;;34.08;34.89
62548;BME280;48602;45.192;5.722;2023-08-24T10:41:51;98886.41;;;34.14;34.20
62548;BME280;48602;45.192;5.722;2023-08-24T10:47:08;98886.75;;;34.30;34.15
62548;BME280;48602;45.192;5.722;2023-08-24T10:49:38;98890.28;;;34.38;33.82
62548;BME280;48602;45.192;5.722;2023-08-24T10:52:25;98877.19;;;34.46;33.77
62548;BME280;48602;45.192;5.722;2023-08-24T10:54:52;98879.03;;;34.52;33.80
62548;BME280;48602;45.192;5.722;2023-08-24T10:57:19;98883.22;;;34.55;33.50
62548;BME280;48602;45.192;5.722;2023-08-24T10:59:46;98869.72;;;34.60;33.39
62548;BME280;48602;45.192;5.722;2023-08-24T11:02:23;98864.81;;;34.69;33.24
62548;BME280;48602;45.192;5.722;2023-08-24T11:07:49;98842.75;;;34.88;32.88
62548;BME280;48602;45.192;5.722;2023-08-24T11:10:15;98837.84;;;34.97;32.87
62548;BME280;48602;45.192;5.722;2023-08-24T11:20:44;98831.81;;;35.50;32.36
62548;BME280;48602;45.192;5.722;2023-08-24T11:23:10;98829.38;;;35.60;31.51
62548;BME280;48602;45.192;5.722;2023-08-24T11:25:35;98825.00;;;35.71;30.84
62548;BME280;48602;45.192;5.722;2023-08-24T11:28:03;98827.25;;;35.80;31.23
62548;BME280;48602;45.192;5.722;2023-08-24T11:30:30;98834.91;;;35.90;31.94
62548;BME280;48602;45.192;5.722;2023-08-24T11:32:55;98812.06;;;35.96;30.33
62548;BME280;48602;45.192;5.722;2023-08-24T11:35:21;98807.06;;;36.05;31.42
62548;BME280;48602;45.192;5.722;2023-08-24T11:37:57;98805.69;;;36.14;31.07
62548;BME280;48602;45.192;5.722;2023-08-24T11:40:23;98805.50;;;36.27;30.99
62548;BME280;48602;45.192;5.722;2023-08-24T11:42:58;98812.69;;;36.40;30.26
62548;BME280;48602;45.192;5.722;2023-08-24T11:45:32;98800.69;;;36.52;29.70
62548;BME280;48602;45.192;5.722;2023-08-24T11:48:01;98796.63;;;36.66;28.85
62548;BME280;48602;45.192;5.722;2023-08-24T11:50:27;98798.81;;;36.76;29.26
62548;BME280;48602;45.192;5.722;2023-08-24T11:52:54;98803.47;;;36.87;29.37
62548;BME280;48602;45.192;5.722;2023-08-24T11:55:22;98793.91;;;37.01;28.58
62548;BME280;48602;45.192;5.722;2023-08-24T11:57:47;98786.97;;;37.11;28.32
62548;BME280;48602;45.192;5.722;2023-08-24T12:00:14;98809.22;;;37.21;28.46
62548;BME280;48602;45.192;5.722;2023-08-24T12:02:42;98798.94;;;37.28;27.99
62548;BME280;48602;45.192;5.722;2023-08-24T12:05:19;98791.63;;;37.33;28.09
62548;BME280;48602;45.192;5.722;2023-08-24T12:07:45;98777.50;;;37.42;27.80
62548;BME280;48602;45.192;5.722;2023-08-24T12:10:12;98785.13;;;37.51;27.89
62548;BME280;48602;45.192;5.722;2023-08-24T12:12:38;98786.66;;;37.59;28.17
62548;BME280;48602;45.192;5.722;2023-08-24T12:15:03;98789.91;;;37.67;27.45
62548;BME280;48602;45.192;5.722;2023-08-24T12:17:29;98775.97;;;37.74;27.89
62548;BME280;48602;45.192;5.722;2023-08-24T12:19:59;98781.72;;;37.84;27.64
62548;BME280;48602;45.192;5.722;2023-08-24T12:22:31;98778.53;;;37.92;27.22
62548;BME280;48602;45.192;5.722;2023-08-24T12:24:57;98771.94;;;37.93;27.38
62548;BME280;48602;45.192;5.722;2023-08-24T12:27:25;98778.88;;;37.96;27.30
62548;BME280;48602;45.192;5.722;2023-08-24T12:29:53;98763.81;;;37.98;27.30
62548;BME280;48602;45.192;5.722;2023-08-24T12:32:20;98767.75;;;38.02;26.65
62548;BME280;48602;45.192;5.722;2023-08-24T12:34:47;98760.16;;;38.10;25.98
62548;BME280;48602;45.192;5.722;2023-08-24T12:37:13;98774.28;;;38.13;25.87
62548;BME280;48602;45.192;5.722;2023-08-24T12:39:39;98768.53;;;38.15;25.84
62548;BME280;48602;45.192;5.722;2023-08-24T12:42:05;98793.81;;;38.12;25.65
62548;BME280;48602;45.192;5.722;2023-08-24T12:44:31;98779.78;;;38.13;25.49
62548;BME280;48602;45.192;5.722;2023-08-24T12:46:57;98756.44;;;38.16;26.28
62548;BME280;48602;45.192;5.722;2023-08-24T12:49:22;98777.72;;;38.20;25.32
62548;BME280;48602;45.192;5.722;2023-08-24T12:51:48;98758.53;;;38.25;25.24
62548;BME280;48602;45.192;5.722;2023-08-24T12:54:13;98740.75;;;38.33;25.33
62548;BME280;48602;45.192;5.722;2023-08-24T12:56:39;98744.41;;;38.38;25.32
62548;BME280;48602;45.192;5.722;2023-08-24T12:59:06;98742.00;;;38.42;25.88
62548;BME280;48602;45.192;5.722;2023-08-24T13:01:31;98740.91;;;38.43;25.04
62548;BME280;48602;45.192;5.722;2023-08-24T13:03:57;98729.81;;;38.38;25.08
62548;BME280;48602;45.192;5.722;2023-08-24T13:06:22;98737.81;;;38.39;24.95
62548;BME280;48602;45.192;5.722;2023-08-24T13:08:47;98725.72;;;38.40;25.11
62548;BME280;48602;45.192;5.722;2023-08-24T13:11:13;98715.88;;;38.45;25.11
62548;BME280;48602;45.192;5.722;2023-08-24T13:13:38;98712.13;;;38.51;24.32
62548;BME280;48602;45.192;5.722;2023-08-24T13:16:04;98715.47;;;38.53;24.51
62548;BME280;48602;45.192;5.722;2023-08-24T13:18:29;98705.88;;;38.55;24.08